Terminal Aerodrome Forecast
Issued by NWS Boise, ID

Home | Current Version | Previous Version | Text Only | Print | Product List | Glossary On
Versions: 1 2 3 4 5 6 7 8 9 10 11 12 13 14 15 16 17 18 19 20 21 22 23 24 25 26 27 28 29 30 31 32 33 34 35 36 37 38 39 40 41 42 43 44
000
FTUS45 KBOI 290520
TAFBOI
TAF
KBOI 290520Z 2906/3006 VRB03KT 1/2SM FZFG OVC001
      TEMPO 2906/2910 1SM BR OVC002
     FM291200 14005KT 1SM BR OVC002
     FM291600 14005KT 2SM -SN BR OVC005
     FM292000 32010KT 1SM -SN BR OVC008
     FM300200 32010KT 2SM -SN OVC020=

USA.gov is the U.S. government's official web portal to all federal, state and local government web resources and services.